sensor_id;sensor_type;location;lat;lon;timestamp;P1;durP1;ratioP1;P2;durP2;ratioP2
11445;SDS011;5779;64.178;15.432;2023-03-02T00:00:34;4.93;;;2.20;;
11445;SDS011;5779;64.178;15.432;2023-03-02T00:03:23;6.13;;;1.70;;
11445;SDS011;5779;64.178;15.432;2023-03-02T00:06:11;4.57;;;1.80;;
11445;SDS011;5779;64.178;15.432;2023-03-02T00:08:59;10.43;;;2.03;;
11445;SDS011;5779;64.178;15.432;2023-03-02T00:11:47;5.77;;;1.33;;
11445;SDS011;5779;64.178;15.432;2023-03-02T00:14:34;6.50;;;1.90;;
11445;SDS011;5779;64.178;15.432;2023-03-02T00:17:22;3.33;;;1.50;;
11445;SDS011;5779;64.178;15.432;2023-03-02T00:20:13;9.33;;;1.83;;
11445;SDS011;5779;64.178;15.432;2023-03-02T00:23:00;3.90;;;1.50;;
11445;SDS011;5779;64.178;15.432;2023-03-02T00:25:46;7.43;;;1.80;;
11445;SDS011;5779;64.178;15.432;2023-03-02T00:28:33;6.70;;;1.97;;
11445;SDS011;5779;64.178;15.432;2023-03-02T00:31:20;6.43;;;2.10;;
11445;SDS011;5779;64.178;15.432;2023-03-02T00:34:07;10.17;;;2.00;;
11445;SDS011;5779;64.178;15.432;2023-03-02T00:36:55;6.43;;;1.90;;
11445;SDS011;5779;64.178;15.432;2023-03-02T00:39:42;4.97;;;1.70;;
11445;SDS011;5779;64.178;15.432;2023-03-02T00:42:29;11.97;;;2.20;;
11445;SDS011;5779;64.178;15.432;2023-03-02T00:45:16;2.23;;;0.80;;
11445;SDS011;5779;64.178;15.432;2023-03-02T00:48:04;4.73;;;1.63;;
11445;SDS011;5779;64.178;15.432;2023-03-02T00:50:51;10.60;;;2.23;;
11445;SDS011;5779;64.178;15.432;2023-03-02T00:53:39;6.70;;;1.17;;
11445;SDS011;5779;64.178;15.432;2023-03-02T00:56:26;4.83;;;1.80;;
11445;SDS011;5779;64.178;15.432;2023-03-02T00:59:13;5.00;;;1.47;;
11445;SDS011;5779;64.178;15.432;2023-03-02T01:02:13;3.93;;;1.27;;
11445;SDS011;5779;64.178;15.432;2023-03-02T01:05:00;1.20;;;1.10;;
11445;SDS011;5779;64.178;15.432;2023-03-02T01:07:47;5.23;;;1.97;;
11445;SDS011;5779;64.178;15.432;2023-03-02T01:10:36;6.93;;;2.07;;
11445;SDS011;5779;64.178;15.432;2023-03-02T01:13:23;6.50;;;2.03;;
11445;SDS011;5779;64.178;15.432;2023-03-02T01:16:10;2.53;;;0.97;;
11445;SDS011;5779;64.178;15.432;2023-03-02T01:18:57;9.67;;;2.43;;
11445;SDS011;5779;64.178;15.432;2023-03-02T01:21:44;6.03;;;1.77;;
11445;SDS011;5779;64.178;15.432;2023-03-02T01:24:31;0.53;;;0.53;;
11445;SDS011;5779;64.178;15.432;2023-03-02T01:27:19;13.00;;;2.07;;
11445;SDS011;5779;64.178;15.432;2023-03-02T01:30:07;5.13;;;2.27;;
11445;SDS011;5779;64.178;15.432;2023-03-02T01:32:54;13.77;;;2.67;;
11445;SDS011;5779;64.178;15.432;2023-03-02T01:35:43;8.30;;;2.00;;
11445;SDS011;5779;64.178;15.432;2023-03-02T01:38:30;11.60;;;2.47;;
11445;SDS011;5779;64.178;15.432;2023-03-02T01:41:17;4.60;;;1.80;;
11445;SDS011;5779;64.178;15.432;2023-03-02T01:44:07;4.40;;;1.70;;
11445;SDS011;5779;64.178;15.432;2023-03-02T01:47:14;6.23;;;1.97;;
11445;SDS011;5779;64.178;15.432;2023-03-02T01:50:04;4.30;;;1.83;;
11445;SDS011;5779;64.178;15.432;2023-03-02T01:53:00;5.90;;;1.90;;
11445;SDS011;5779;64.178;15.432;2023-03-02T01:55:46;2.57;;;0.90;;
11445;SDS011;5779;64.178;15.432;2023-03-02T01:58:34;5.37;;;1.33;;
11445;SDS011;5779;64.178;15.432;2023-03-02T02:01:23;2.77;;;1.53;;
11445;SDS011;5779;64.178;15.432;2023-03-02T02:04:11;7.63;;;2.23;;
11445;SDS011;5779;64.178;15.432;2023-03-02T02:07:00;3.53;;;1.23;;
11445;SDS011;5779;64.178;15.432;2023-03-02T02:09:47;3.03;;;1.90;;
11445;SDS011;5779;64.178;15.432;2023-03-02T02:12:37;7.67;;;1.77;;
11445;SDS011;5779;64.178;15.432;2023-03-02T02:15:24;6.70;;;2.07;;
11445;SDS011;5779;64.178;15.432;2023-03-02T02:18:13;3.83;;;1.40;;
11445;SDS011;5779;64.178;15.432;2023-03-02T02:21:00;4.00;;;1.37;;
11445;SDS011;5779;64.178;15.432;2023-03-02T02:24:00;11.17;;;1.83;;
11445;SDS011;5779;64.178;15.432;2023-03-02T02:26:54;1.53;;;1.20;;
11445;SDS011;5779;64.178;15.432;2023-03-02T02:29:42;1.67;;;1.27;;
11445;SDS011;5779;64.178;15.432;2023-03-02T02:32:33;6.10;;;2.10;;
11445;SDS011;5779;64.178;15.432;2023-03-02T02:35:23;4.20;;;1.40;;
11445;SDS011;5779;64.178;15.432;2023-03-02T02:38:12;5.40;;;1.97;;
11445;SDS011;5779;64.178;15.432;2023-03-02T02:41:02;4.70;;;1.47;;
11445;SDS011;5779;64.178;15.432;2023-03-02T02:43:52;3.60;;;1.27;;
11445;SDS011;5779;64.178;15.432;2023-03-02T02:46:40;3.03;;;1.83;;
11445;SDS011;5779;64.178;15.432;2023-03-02T02:49:29;5.53;;;1.20;;
11445;SDS011;5779;64.178;15.432;2023-03-02T02:52:18;2.50;;;1.37;;
11445;SDS011;5779;64.178;15.432;2023-03-02T02:55:08;7.83;;;2.53;;
11445;SDS011;5779;64.178;15.432;2023-03-02T02:58:01;1.43;;;0.93;;
11445;SDS011;5779;64.178;15.432;2023-03-02T03:00:54;3.60;;;1.27;;
11445;SDS011;5779;64.178;15.432;2023-03-02T03:03:42;3.57;;;1.57;;
11445;SDS011;5779;64.178;15.432;2023-03-02T03:06:35;7.00;;;1.33;;
11445;SDS011;5779;64.178;15.432;2023-03-02T03:09:25;2.27;;;1.37;;
11445;SDS011;5779;64.178;15.432;2023-03-02T03:12:14;6.10;;;1.57;;
11445;SDS011;5779;64.178;15.432;2023-03-02T03:15:04;1.33;;;0.67;;
11445;SDS011;5779;64.178;15.432;2023-03-02T03:17:54;5.97;;;1.83;;
11445;SDS011;5779;64.178;15.432;2023-03-02T03:20:41;5.83;;;1.90;;
11445;SDS011;5779;64.178;15.432;2023-03-02T03:23:28;2.43;;;1.03;;
11445;SDS011;5779;64.178;15.432;2023-03-02T03:26:16;2.47;;;1.03;;
11445;SDS011;5779;64.178;15.432;2023-03-02T03:29:03;8.80;;;1.47;;
11445;SDS011;5779;64.178;15.432;2023-03-02T03:31:50;1.37;;;0.70;;
11445;SDS011;5779;64.178;15.432;2023-03-02T03:34:40;7.67;;;2.30;;
11445;SDS011;5779;64.178;15.432;2023-03-02T03:37:27;6.50;;;1.47;;
11445;SDS011;5779;64.178;15.432;2023-03-02T03:40:14;1.33;;;1.03;;
11445;SDS011;5779;64.178;15.432;2023-03-02T03:43:01;2.30;;;1.37;;
11445;SDS011;5779;64.178;15.432;2023-03-02T03:45:49;3.80;;;1.20;;
11445;SDS011;5779;64.178;15.432;2023-03-02T03:48:36;5.07;;;1.97;;
11445;SDS011;5779;64.178;15.432;2023-03-02T03:51:25;6.67;;;1.77;;
11445;SDS011;5779;64.178;15.432;2023-03-02T03:54:13;3.67;;;1.50;;
11445;SDS011;5779;64.178;15.432;2023-03-02T03:57:00;8.60;;;1.37;;
11445;SDS011;5779;64.178;15.432;2023-03-02T03:59:47;1.90;;;1.20;;
11445;SDS011;5779;64.178;15.432;2023-03-02T04:02:34;2.63;;;1.23;;
11445;SDS011;5779;64.178;15.432;2023-03-02T04:05:21;1.33;;;0.93;;
11445;SDS011;5779;64.178;15.432;2023-03-02T04:08:10;4.20;;;1.77;;
11445;SDS011;5779;64.178;15.432;2023-03-02T04:10:56;5.03;;;1.00;;
11445;SDS011;5779;64.178;15.432;2023-03-02T04:13:43;10.10;;;2.17;;
11445;SDS011;5779;64.178;15.432;2023-03-02T04:16:31;1.87;;;1.43;;
11445;SDS011;5779;64.178;15.432;2023-03-02T04:19:18;2.90;;;1.00;;
11445;SDS011;5779;64.178;15.432;2023-03-02T04:22:06;1.33;;;1.23;;
11445;SDS011;5779;64.178;15.432;2023-03-02T04:24:54;2.80;;;1.17;;
11445;SDS011;5779;64.178;15.432;2023-03-02T04:27:41;0.50;;;0.50;;
11445;SDS011;5779;64.178;15.432;2023-03-02T04:30:28;2.90;;;0.90;;
11445;SDS011;5779;64.178;15.432;2023-03-02T04:33:16;4.90;;;1.47;;
11445;SDS011;5779;64.178;15.432;2023-03-02T04:36:03;5.47;;;1.37;;
11445;SDS011;5779;64.178;15.432;2023-03-02T04:38:51;2.80;;;0.90;;
11445;SDS011;5779;64.178;15.432;2023-03-02T04:41:39;1.30;;;0.83;;
11445;SDS011;5779;64.178;15.432;2023-03-02T04:44:26;13.43;;;1.40;;
11445;SDS011;5779;64.178;15.432;2023-03-02T04:47:13;7.20;;;1.20;;
11445;SDS011;5779;64.178;15.432;2023-03-02T04:50:00;3.00;;;1.43;;
11445;SDS011;5779;64.178;15.432;2023-03-02T04:52:47;1.60;;;0.83;;
11445;SDS011;5779;64.178;15.432;2023-03-02T04:55:34;5.90;;;1.23;;
11445;SDS011;5779;64.178;15.432;2023-03-02T04:58:22;4.67;;;1.00;;
11445;SDS011;5779;64.178;15.432;2023-03-02T05:01:10;5.70;;;1.20;;
11445;SDS011;5779;64.178;15.432;2023-03-02T05:03:57;4.83;;;1.60;;
11445;SDS011;5779;64.178;15.432;2023-03-02T05:06:44;2.17;;;1.33;;
11445;SDS011;5779;64.178;15.432;2023-03-02T05:09:32;3.33;;;1.30;;
11445;SDS011;5779;64.178;15.432;2023-03-02T05:12:18;1.60;;;1.00;;
11445;SDS011;5779;64.178;15.432;2023-03-02T05:15:07;2.93;;;1.20;;
11445;SDS011;5779;64.178;15.432;2023-03-02T05:17:54;2.30;;;1.57;;
11445;SDS011;5779;64.178;15.432;2023-03-02T05:20:41;2.43;;;0.80;;
11445;SDS011;5779;64.178;15.432;2023-03-02T05:23:28;4.40;;;1.13;;
11445;SDS011;5779;64.178;15.432;2023-03-02T05:26:15;4.17;;;1.70;;
11445;SDS011;5779;64.178;15.432;2023-03-02T05:29:02;1.33;;;0.80;;
11445;SDS011;5779;64.178;15.432;2023-03-02T05:31:50;8.43;;;2.83;;
11445;SDS011;5779;64.178;15.432;2023-03-02T05:34:37;2.13;;;1.60;;
11445;SDS011;5779;64.178;15.432;2023-03-02T05:37:24;2.53;;;1.23;;
11445;SDS011;5779;64.178;15.432;2023-03-02T05:40:11;4.27;;;1.70;;
11445;SDS011;5779;64.178;15.432;2023-03-02T05:42:59;6.70;;;1.27;;
11445;SDS011;5779;64.178;15.432;2023-03-02T05:45:46;12.13;;;2.00;;
11445;SDS011;5779;64.178;15.432;2023-03-02T05:48:35;2.13;;;1.00;;
11445;SDS011;5779;64.178;15.432;2023-03-02T05:51:21;4.77;;;1.30;;
11445;SDS011;5779;64.178;15.432;2023-03-02T05:54:08;1.70;;;0.87;;
11445;SDS011;5779;64.178;15.432;2023-03-02T05:56:55;1.63;;;0.97;;
11445;SDS011;5779;64.178;15.432;2023-03-02T05:59:42;5.80;;;1.50;;
11445;SDS011;5779;64.178;15.432;2023-03-02T06:02:30;18.53;;;1.40;;
11445;SDS011;5779;64.178;15.432;2023-03-02T06:05:18;4.47;;;1.17;;
11445;SDS011;5779;64.178;15.432;2023-03-02T06:08:06;5.70;;;1.20;;
11445;SDS011;5779;64.178;15.432;2023-03-02T06:10:54;3.80;;;1.17;;
11445;SDS011;5779;64.178;15.432;2023-03-02T06:13:41;5.17;;;1.87;;
11445;SDS011;5779;64.178;15.432;2023-03-02T06:16:28;4.00;;;2.07;;
11445;SDS011;5779;64.178;15.432;2023-03-02T06:19:16;5.77;;;1.50;;
11445;SDS011;5779;64.178;15.432;2023-03-02T06:22:05;6.37;;;1.77;;
11445;SDS011;5779;64.178;15.432;2023-03-02T06:24:52;3.73;;;1.77;;
11445;SDS011;5779;64.178;15.432;2023-03-02T06:27:39;5.03;;;1.33;;
11445;SDS011;5779;64.178;15.432;2023-03-02T06:30:27;2.80;;;1.30;;
11445;SDS011;5779;64.178;15.432;2023-03-02T06:33:14;5.70;;;1.87;;
11445;SDS011;5779;64.178;15.432;2023-03-02T06:36:01;9.57;;;1.53;;
11445;SDS011;5779;64.178;15.432;2023-03-02T06:38:49;10.43;;;2.47;;
11445;SDS011;5779;64.178;15.432;2023-03-02T06:41:36;4.40;;;1.40;;
11445;SDS011;5779;64.178;15.432;2023-03-02T06:44:23;2.70;;;1.27;;
11445;SDS011;5779;64.178;15.432;2023-03-02T06:47:10;9.43;;;1.87;;
11445;SDS011;5779;64.178;15.432;2023-03-02T06:49:57;4.83;;;2.30;;
11445;SDS011;5779;64.178;15.432;2023-03-02T06:52:44;4.07;;;1.80;;
11445;SDS011;5779;64.178;15.432;2023-03-02T06:55:32;2.80;;;1.30;;
11445;SDS011;5779;64.178;15.432;2023-03-02T06:58:19;7.43;;;2.30;;
11445;SDS011;5779;64.178;15.432;2023-03-02T07:01:06;8.67;;;2.30;;
11445;SDS011;5779;64.178;15.432;2023-03-02T07:03:53;14.53;;;2.50;;
11445;SDS011;5779;64.178;15.432;2023-03-02T07:06:39;9.10;;;1.63;;
11445;SDS011;5779;64.178;15.432;2023-03-02T07:09:26;8.73;;;2.00;;
11445;SDS011;5779;64.178;15.432;2023-03-02T07:12:15;11.83;;;2.53;;
11445;SDS011;5779;64.178;15.432;2023-03-02T07:15:02;2.90;;;0.80;;
11445;SDS011;5779;64.178;15.432;2023-03-02T07:17:54;6.53;;;2.07;;
11445;SDS011;5779;64.178;15.432;2023-03-02T07:20:41;0.90;;;0.77;;
11445;SDS011;5779;64.178;15.432;2023-03-02T07:23:28;1.83;;;1.70;;
11445;SDS011;5779;64.178;15.432;2023-03-02T07:26:15;4.37;;;1.63;;
11445;SDS011;5779;64.178;15.432;2023-03-02T07:29:03;2.13;;;1.27;;
11445;SDS011;5779;64.178;15.432;2023-03-02T07:31:50;0.53;;;0.40;;
11445;SDS011;5779;64.178;15.432;2023-03-02T07:34:40;4.33;;;1.33;;
11445;SDS011;5779;64.178;15.432;2023-03-02T07:37:27;9.07;;;1.70;;
11445;SDS011;5779;64.178;15.432;2023-03-02T07:40:14;2.73;;;1.53;;
11445;SDS011;5779;64.178;15.432;2023-03-02T07:43:00;2.20;;;0.80;;
11445;SDS011;5779;64.178;15.432;2023-03-02T07:45:49;3.33;;;1.20;;
11445;SDS011;5779;64.178;15.432;2023-03-02T07:48:36;4.37;;;1.43;;
11445;SDS011;5779;64.178;15.432;2023-03-02T07:51:23;0.93;;;0.63;;
11445;SDS011;5779;64.178;15.432;2023-03-02T07:54:10;1.47;;;0.93;;
11445;SDS011;5779;64.178;15.432;2023-03-02T07:56:57;3.23;;;0.97;;
11445;SDS011;5779;64.178;15.432;2023-03-02T07:59:44;4.07;;;1.33;;
11445;SDS011;5779;64.178;15.432;2023-03-02T08:02:32;2.03;;;0.90;;
11445;SDS011;5779;64.178;15.432;2023-03-02T08:05:19;1.50;;;0.73;;
11445;SDS011;5779;64.178;15.432;2023-03-02T08:08:06;1.77;;;0.93;;
11445;SDS011;5779;64.178;15.432;2023-03-02T08:10:53;9.60;;;0.73;;
11445;SDS011;5779;64.178;15.432;2023-03-02T08:13:41;0.40;;;0.40;;
11445;SDS011;5779;64.178;15.432;2023-03-02T08:16:28;0.50;;;0.30;;
11445;SDS011;5779;64.178;15.432;2023-03-02T08:19:16;0.83;;;0.73;;
11445;SDS011;5779;64.178;15.432;2023-03-02T08:22:03;0.67;;;0.67;;
11445;SDS011;5779;64.178;15.432;2023-03-02T08:24:50;5.00;;;0.93;;
11445;SDS011;5779;64.178;15.432;2023-03-02T08:27:37;2.47;;;1.13;;
11445;SDS011;5779;64.178;15.432;2023-03-02T08:30:24;5.23;;;1.07;;
11445;SDS011;5779;64.178;15.432;2023-03-02T08:33:11;5.00;;;1.73;;
11445;SDS011;5779;64.178;15.432;2023-03-02T08:36:00;8.60;;;2.50;;
11445;SDS011;5779;64.178;15.432;2023-03-02T08:38:49;1.67;;;1.33;;
11445;SDS011;5779;64.178;15.432;2023-03-02T08:41:36;3.87;;;2.20;;
11445;SDS011;5779;64.178;15.432;2023-03-02T08:44:23;12.03;;;2.30;;
11445;SDS011;5779;64.178;15.432;2023-03-02T08:47:10;1.93;;;1.27;;
11445;SDS011;5779;64.178;15.432;2023-03-02T08:49:56;11.27;;;1.97;;
11445;SDS011;5779;64.178;15.432;2023-03-02T08:52:45;9.97;;;2.33;;
11445;SDS011;5779;64.178;15.432;2023-03-02T08:55:33;8.50;;;2.63;;
11445;SDS011;5779;64.178;15.432;2023-03-02T08:58:21;4.77;;;1.93;;
11445;SDS011;5779;64.178;15.432;2023-03-02T09:01:11;5.23;;;2.00;;
11445;SDS011;5779;64.178;15.432;2023-03-02T09:03:59;4.40;;;1.60;;
11445;SDS011;5779;64.178;15.432;2023-03-02T09:06:46;10.17;;;1.53;;
11445;SDS011;5779;64.178;15.432;2023-03-02T09:09:34;6.07;;;2.13;;
11445;SDS011;5779;64.178;15.432;2023-03-02T09:12:21;6.13;;;1.83;;
11445;SDS011;5779;64.178;15.432;2023-03-02T09:15:08;3.80;;;1.57;;
11445;SDS011;5779;64.178;15.432;2023-03-02T09:17:55;9.93;;;2.00;;
11445;SDS011;5779;64.178;15.432;2023-03-02T09:20:42;6.27;;;1.67;;
11445;SDS011;5779;64.178;15.432;2023-03-02T09:23:29;12.03;;;2.23;;
11445;SDS011;5779;64.178;15.432;2023-03-02T09:26:18;4.47;;;1.87;;
11445;SDS011;5779;64.178;15.432;2023-03-02T09:29:05;6.57;;;1.30;;
11445;SDS011;5779;64.178;15.432;2023-03-02T09:31:51;6.10;;;1.80;;
11445;SDS011;5779;64.178;15.432;2023-03-02T09:34:38;8.93;;;2.47;;
11445;SDS011;5779;64.178;15.432;2023-03-02T09:37:26;8.80;;;1.23;;
11445;SDS011;5779;64.178;15.432;2023-03-02T09:40:15;9.07;;;2.40;;
11445;SDS011;5779;64.178;15.432;2023-03-02T09:43:10;6.80;;;2.47;;
11445;SDS011;5779;64.178;15.432;2023-03-02T09:46:07;9.07;;;1.77;;
11445;SDS011;5779;64.178;15.432;2023-03-02T09:49:09;11.70;;;2.10;;
11445;SDS011;5779;64.178;15.432;2023-03-02T09:52:12;10.87;;;2.37;;
11445;SDS011;5779;64.178;15.432;2023-03-02T09:55:11;6.63;;;1.77;;
11445;SDS011;5779;64.178;15.432;2023-03-02T09:58:02;17.20;;;2.60;;
11445;SDS011;5779;64.178;15.432;2023-03-02T10:00:52;7.70;;;1.90;;
11445;SDS011;5779;64.178;15.432;2023-03-02T10:03:39;14.77;;;3.37;;
11445;SDS011;5779;64.178;15.432;2023-03-02T10:06:32;10.33;;;3.03;;
11445;SDS011;5779;64.178;15.432;2023-03-02T10:09:19;1.17;;;1.07;;
11445;SDS011;5779;64.178;15.432;2023-03-02T10:12:10;4.47;;;1.57;;
11445;SDS011;5779;64.178;15.432;2023-03-02T10:15:09;7.60;;;2.43;;
11445;SDS011;5779;64.178;15.432;2023-03-02T10:18:03;3.47;;;1.67;;
11445;SDS011;5779;64.178;15.432;2023-03-02T10:20:58;4.77;;;1.73;;
11445;SDS011;5779;64.178;15.432;2023-03-02T10:23:50;6.83;;;2.43;;
11445;SDS011;5779;64.178;15.432;2023-03-02T10:26:44;8.73;;;2.50;;
11445;SDS011;5779;64.178;15.432;2023-03-02T10:29:35;4.87;;;1.47;;
11445;SDS011;5779;64.178;15.432;2023-03-02T10:32:31;6.13;;;1.87;;
11445;SDS011;5779;64.178;15.432;2023-03-02T10:35:25;14.63;;;3.50;;
11445;SDS011;5779;64.178;15.432;2023-03-02T10:38:13;5.97;;;1.80;;
11445;SDS011;5779;64.178;15.432;2023-03-02T10:41:02;7.37;;;2.40;;
11445;SDS011;5779;64.178;15.432;2023-03-02T10:43:53;12.63;;;2.53;;
11445;SDS011;5779;64.178;15.432;2023-03-02T10:46:44;4.50;;;2.17;;
11445;SDS011;5779;64.178;15.432;2023-03-02T10:49:32;11.57;;;2.20;;
11445;SDS011;5779;64.178;15.432;2023-03-02T10:52:24;9.60;;;2.30;;
11445;SDS011;5779;64.178;15.432;2023-03-02T10:55:12;5.80;;;1.30;;
11445;SDS011;5779;64.178;15.432;2023-03-02T10:58:01;8.90;;;2.60;;
11445;SDS011;5779;64.178;15.432;2023-03-02T11:00:56;11.90;;;2.53;;
11445;SDS011;5779;64.178;15.432;2023-03-02T11:03:53;4.03;;;1.90;;
11445;SDS011;5779;64.178;15.432;2023-03-02T11:06:41;6.63;;;2.07;;
11445;SDS011;5779;64.178;15.432;2023-03-02T11:09:29;6.80;;;2.43;;
11445;SDS011;5779;64.178;15.432;2023-03-02T11:12:16;9.23;;;2.63;;
11445;SDS011;5779;64.178;15.432;2023-03-02T11:15:15;6.37;;;2.83;;
11445;SDS011;5779;64.178;15.432;2023-03-02T11:18:10;3.87;;;1.93;;
11445;SDS011;5779;64.178;15.432;2023-03-02T11:21:07;7.67;;;2.23;;
11445;SDS011;5779;64.178;15.432;2023-03-02T11:23:59;3.60;;;1.87;;
11445;SDS011;5779;64.178;15.432;2023-03-02T11:26:54;4.50;;;1.47;;
11445;SDS011;5779;64.178;15.432;2023-03-02T11:29:46;8.97;;;2.40;;
11445;SDS011;5779;64.178;15.432;2023-03-02T11:32:39;5.03;;;1.90;;
11445;SDS011;5779;64.178;15.432;2023-03-02T11:35:31;10.43;;;2.37;;
11445;SDS011;5779;64.178;15.432;2023-03-02T11:38:22;2.43;;;1.63;;
11445;SDS011;5779;64.178;15.432;2023-03-02T11:41:13;5.13;;;2.03;;
11445;SDS011;5779;64.178;15.432;2023-03-02T11:44:16;11.23;;;2.87;;
11445;SDS011;5779;64.178;15.432;2023-03-02T11:47:04;8.00;;;2.53;;
11445;SDS011;5779;64.178;15.432;2023-03-02T11:49:57;8.63;;;2.00;;
11445;SDS011;5779;64.178;15.432;2023-03-02T11:52:49;6.83;;;2.03;;
11445;SDS011;5779;64.178;15.432;2023-03-02T11:55:39;3.23;;;1.87;;
11445;SDS011;5779;64.178;15.432;2023-03-02T11:58:29;12.90;;;2.50;;
11445;SDS011;5779;64.178;15.432;2023-03-02T12:01:20;5.47;;;1.80;;
11445;SDS011;5779;64.178;15.432;2023-03-02T12:04:09;9.93;;;2.67;;
11445;SDS011;5779;64.178;15.432;2023-03-02T12:07:17;5.83;;;1.60;;
11445;SDS011;5779;64.178;15.432;2023-03-02T12:10:20;3.70;;;1.70;;
11445;SDS011;5779;64.178;15.432;2023-03-02T12:13:13;3.63;;;1.90;;
11445;SDS011;5779;64.178;15.432;2023-03-02T12:16:03;7.87;;;2.03;;
11445;SDS011;5779;64.178;15.432;2023-03-02T12:19:12;3.90;;;1.37;;
11445;SDS011;5779;64.178;15.432;2023-03-02T12:22:09;3.33;;;1.40;;
11445;SDS011;5779;64.178;15.432;2023-03-02T12:25:00;1.97;;;1.10;;
11445;SDS011;5779;64.178;15.432;2023-03-02T12:27:50;4.87;;;1.30;;
11445;SDS011;5779;64.178;15.432;2023-03-02T12:30:38;2.97;;;1.30;;
11445;SDS011;5779;64.178;15.432;2023-03-02T12:33:25;0.90;;;0.73;;
11445;SDS011;5779;64.178;15.432;2023-03-02T12:36:14;1.87;;;1.20;;
11445;SDS011;5779;64.178;15.432;2023-03-02T12:39:09;5.73;;;1.13;;
11445;SDS011;5779;64.178;15.432;2023-03-02T12:42:15;6.33;;;1.57;;
11445;SDS011;5779;64.178;15.432;2023-03-02T12:45:24;2.43;;;0.93;;
11445;SDS011;5779;64.178;15.432;2023-03-02T12:48:22;5.40;;;1.23;;
11445;SDS011;5779;64.178;15.432;2023-03-02T12:51:15;1.17;;;0.90;;
11445;SDS011;5779;64.178;15.432;2023-03-02T12:54:06;2.57;;;1.13;;
11445;SDS011;5779;64.178;15.432;2023-03-02T12:57:01;2.90;;;0.83;;
11445;SDS011;5779;64.178;15.432;2023-03-02T12:59:58;3.30;;;1.10;;
11445;SDS011;5779;64.178;15.432;2023-03-02T13:02:47;3.87;;;0.90;;
11445;SDS011;5779;64.178;15.432;2023-03-02T13:05:35;4.03;;;1.00;;
11445;SDS011;5779;64.178;15.432;2023-03-02T13:08:25;1.63;;;1.07;;
11445;SDS011;5779;64.178;15.432;2023-03-02T13:11:13;0.70;;;0.50;;
11445;SDS011;5779;64.178;15.432;2023-03-02T13:14:16;1.50;;;0.60;;
11445;SDS011;5779;64.178;15.432;2023-03-02T13:17:04;0.53;;;0.53;;
11445;SDS011;5779;64.178;15.432;2023-03-02T13:19:51;1.03;;;0.70;;
11445;SDS011;5779;64.178;15.432;2023-03-02T13:22:39;6.63;;;0.83;;
11445;SDS011;5779;64.178;15.432;2023-03-02T13:25:28;0.57;;;0.57;;
11445;SDS011;5779;64.178;15.432;2023-03-02T13:28:26;0.20;;;0.20;;
11445;SDS011;5779;64.178;15.432;2023-03-02T13:31:17;1.97;;;0.57;;
11445;SDS011;5779;64.178;15.432;2023-03-02T13:34:16;0.33;;;0.33;;
11445;SDS011;5779;64.178;15.432;2023-03-02T13:37:14;0.40;;;0.40;;
11445;SDS011;5779;64.178;15.432;2023-03-02T13:40:24;3.80;;;0.60;;
11445;SDS011;5779;64.178;15.432;2023-03-02T13:43:35;0.80;;;0.40;;
11445;SDS011;5779;64.178;15.432;2023-03-02T13:46:25;0.67;;;0.47;;
11445;SDS011;5779;64.178;15.432;2023-03-02T13:49:13;1.03;;;0.53;;
11445;SDS011;5779;64.178;15.432;2023-03-02T13:52:12;0.40;;;0.40;;
11445;SDS011;5779;64.178;15.432;2023-03-02T13:55:08;0.57;;;0.50;;
11445;SDS011;5779;64.178;15.432;2023-03-02T13:58:00;0.30;;;0.30;;
11445;SDS011;5779;64.178;15.432;2023-03-02T14:00:47;0.67;;;0.50;;
11445;SDS011;5779;64.178;15.432;2023-03-02T14:03:35;0.63;;;0.50;;
11445;SDS011;5779;64.178;15.432;2023-03-02T14:06:22;0.40;;;0.40;;
11445;SDS011;5779;64.178;15.432;2023-03-02T14:09:09;0.40;;;0.40;;
11445;SDS011;5779;64.178;15.432;2023-03-02T14:11:56;0.30;;;0.30;;
11445;SDS011;5779;64.178;15.432;2023-03-02T14:14:44;0.40;;;0.30;;
11445;SDS011;5779;64.178;15.432;2023-03-02T14:17:31;0.57;;;0.50;;
11445;SDS011;5779;64.178;15.432;2023-03-02T14:20:18;0.77;;;0.47;;
11445;SDS011;5779;64.178;15.432;2023-03-02T14:23:06;0.30;;;0.30;;
11445;SDS011;5779;64.178;15.432;2023-03-02T14:25:53;0.80;;;0.47;;
11445;SDS011;5779;64.178;15.432;2023-03-02T14:28:41;0.50;;;0.40;;
11445;SDS011;5779;64.178;15.432;2023-03-02T14:31:30;1.33;;;0.57;;
11445;SDS011;5779;64.178;15.432;2023-03-02T14:34:17;0.57;;;0.50;;
11445;SDS011;5779;64.178;15.432;2023-03-02T14:37:05;0.97;;;0.40;;
11445;SDS011;5779;64.178;15.432;2023-03-02T14:39:53;0.30;;;0.30;;
11445;SDS011;5779;64.178;15.432;2023-03-02T14:42:40;0.43;;;0.43;;
11445;SDS011;5779;64.178;15.432;2023-03-02T14:45:27;0.87;;;0.40;;
11445;SDS011;5779;64.178;15.432;2023-03-02T14:48:15;0.40;;;0.40;;
11445;SDS011;5779;64.178;15.432;2023-03-02T14:51:02;0.60;;;0.50;;
11445;SDS011;5779;64.178;15.432;2023-03-02T14:53:50;0.80;;;0.60;;
11445;SDS011;5779;64.178;15.432;2023-03-02T14:56:40;0.30;;;0.30;;
11445;SDS011;5779;64.178;15.432;2023-03-02T14:59:28;0.40;;;0.40;;
11445;SDS011;5779;64.178;15.432;2023-03-02T15:02:18;0.87;;;0.47;;
11445;SDS011;5779;64.178;15.432;2023-03-02T15:05:08;0.30;;;0.30;;
11445;SDS011;5779;64.178;15.432;2023-03-02T15:07:55;0.30;;;0.30;;
11445;SDS011;5779;64.178;15.432;2023-03-02T15:10:41;0.53;;;0.50;;
11445;SDS011;5779;64.178;15.432;2023-03-02T15:13:30;0.40;;;0.40;;
11445;SDS011;5779;64.178;15.432;2023-03-02T15:16:17;0.33;;;0.33;;
11445;SDS011;5779;64.178;15.432;2023-03-02T15:19:04;0.60;;;0.37;;
11445;SDS011;5779;64.178;15.432;2023-03-02T15:21:52;0.40;;;0.40;;
11445;SDS011;5779;64.178;15.432;2023-03-02T15:24:39;0.10;;;0.10;;
11445;SDS011;5779;64.178;15.432;2023-03-02T15:27:26;0.33;;;0.30;;
11445;SDS011;5779;64.178;15.432;2023-03-02T15:30:13;0.30;;;0.30;;
11445;SDS011;5779;64.178;15.432;2023-03-02T15:32:59;0.20;;;0.20;;
11445;SDS011;5779;64.178;15.432;2023-03-02T15:35:49;0.23;;;0.23;;
11445;SDS011;5779;64.178;15.432;2023-03-02T15:38:38;0.13;;;0.13;;
11445;SDS011;5779;64.178;15.432;2023-03-02T15:41:25;0.20;;;0.20;;
11445;SDS011;5779;64.178;15.432;2023-03-02T15:44:15;0.20;;;0.20;;
11445;SDS011;5779;64.178;15.432;2023-03-02T15:47:05;0.30;;;0.30;;
11445;SDS011;5779;64.178;15.432;2023-03-02T15:49:52;0.43;;;0.43;;
11445;SDS011;5779;64.178;15.432;2023-03-02T15:52:39;0.60;;;0.40;;
11445;SDS011;5779;64.178;15.432;2023-03-02T15:55:27;1.23;;;0.47;;
11445;SDS011;5779;64.178;15.432;2023-03-02T15:58:14;0.40;;;0.40;;
11445;SDS011;5779;64.178;15.432;2023-03-02T16:01:05;8.30;;;0.47;;
11445;SDS011;5779;64.178;15.432;2023-03-02T16:03:52;0.57;;;0.50;;
11445;SDS011;5779;64.178;15.432;2023-03-02T16:06:39;0.30;;;0.30;;
11445;SDS011;5779;64.178;15.432;2023-03-02T16:09:26;1.87;;;0.63;;
11445;SDS011;5779;64.178;15.432;2023-03-02T16:12:16;0.30;;;0.30;;
11445;SDS011;5779;64.178;15.432;2023-03-02T16:15:06;2.20;;;0.70;;
11445;SDS011;5779;64.178;15.432;2023-03-02T16:17:54;0.43;;;0.40;;
11445;SDS011;5779;64.178;15.432;2023-03-02T16:20:41;0.90;;;0.30;;
11445;SDS011;5779;64.178;15.432;2023-03-02T16:23:28;0.30;;;0.30;;
11445;SDS011;5779;64.178;15.432;2023-03-02T16:26:15;0.30;;;0.30;;
11445;SDS011;5779;64.178;15.432;2023-03-02T16:29:04;0.63;;;0.60;;
11445;SDS011;5779;64.178;15.432;2023-03-02T16:31:52;0.33;;;0.30;;
11445;SDS011;5779;64.178;15.432;2023-03-02T16:34:39;1.23;;;0.80;;
11445;SDS011;5779;64.178;15.432;2023-03-02T16:37:26;0.87;;;0.40;;
11445;SDS011;5779;64.178;15.432;2023-03-02T16:40:12;0.40;;;0.40;;
11445;SDS011;5779;64.178;15.432;2023-03-02T16:43:00;0.63;;;0.63;;
11445;SDS011;5779;64.178;15.432;2023-03-02T16:45:51;0.73;;;0.30;;
11445;SDS011;5779;64.178;15.432;2023-03-02T16:48:37;0.30;;;0.30;;
11445;SDS011;5779;64.178;15.432;2023-03-02T16:51:24;0.30;;;0.30;;
11445;SDS011;5779;64.178;15.432;2023-03-02T16:54:13;0.60;;;0.60;;
11445;SDS011;5779;64.178;15.432;2023-03-02T16:57:01;1.63;;;0.47;;